Terminal Aerodrome Forecast
Issued by NWS

Home | Current Version | Previous Version | Text Only | Print | Product List | Glossary On
Versions: 1 2 3 4 5 6 7 8 9 10 11 12 13 14 15 16 17 18 19 20 21 22 23 24 25 26 27
378
FTUS41 KBUF 252049 AAA
TAFJHW
TAF AMD
KJHW 252049Z 2521/2618 06004KT P6SM SCT050
     FM252300 VRB03KT P6SM SCT250
     FM260700 VRB03KT 1/2SM FG BKN001
     FM261300 VRB03KT P6SM SCT250
     FM261500 20004KT P6SM SCT045
      AMD LTD TO CLD VIS AND WIND=

USA.gov is the U.S. government's official web portal to all federal, state and local government web resources and services.